Time;durP1;ratioP1;P1;durP2;ratioP2;P2;SDS_P1;SDS_P2;PMS_P1;PMS_P2;Temp;Humidity;BMP_temperature;BMP_pressure;BME280_temperature;BME280_humidity;BME280_pressure;Samples;Min_cycle;Max_cycle;Signal;HPM_P1;HPM_P2
2024/04/01 00:01:31;;;;;;;9.60;4.95;;;;;;;19.43;42.78;98917.59;4470566;32;34521;-85
2024/04/01 00:03:58;;;;;;;2.05;1.62;;;;;;;19.53;42.71;98914.88;4457485;32;34134;-86
2024/04/01 00:06:25;;;;;;;13.60;4.45;;;;;;;19.67;42.43;98920.66;4444676;32;32881;-85
2024/04/01 00:08:51;;;;;;;16.10;2.20;;;;;;;19.63;42.41;98915.72;4444629;32;33694;-85
2024/04/01 00:11:18;;;;;;;0.82;0.82;;;;;;;19.78;42.15;98918.78;4457622;32;35620;-85
2024/04/01 00:13:44;;;;;;;5.12;2.10;;;;;;;19.67;42.30;98912.63;4444476;32;33758;-85
2024/04/01 00:16:11;;;;;;;1.87;1.77;;;;;;;19.79;42.21;98905.22;4457360;32;33837;-85
2024/04/01 00:18:38;;;;;;;4.30;2.45;;;;;;;19.49;42.74;98925.03;4431997;32;33949;-85
2024/04/01 00:21:05;;;;;;;3.25;1.40;;;;;;;19.80;42.04;98906.09;4470383;32;34605;-85
2024/04/01 00:23:31;;;;;;;13.27;4.55;;;;;;;19.66;42.42;98905.56;4457276;32;34115;-84
2024/04/01 00:25:58;;;;;;;10.45;3.47;;;;;;;19.75;41.80;98913.69;4444277;32;34625;-85
2024/04/01 00:28:24;;;;;;;8.68;2.12;;;;;;;20.17;41.18;98888.09;4457439;32;33566;-85
2024/04/01 00:30:52;;;;;;;8.80;1.45;;;;;;;19.85;41.70;98901.13;4470402;32;34651;-85
2024/04/01 00:33:19;;;;;;;8.68;4.15;;;;;;;19.85;41.51;98909.16;4431867;32;35207;-85
2024/04/01 00:35:46;;;;;;;7.32;4.03;;;;;;;20.16;40.98;98896.31;4457488;32;34069;-85
2024/04/01 00:38:12;;;;;;;2.33;2.12;;;;;;;20.61;40.09;98906.22;4470474;32;33190;-85
2024/04/01 00:40:39;;;;;;;32.90;7.22;;;;;;;20.48;40.19;98901.22;4444847;32;34573;-84
2024/04/01 00:43:10;;;;;;;7.07;3.67;;;;;;;20.40;40.11;98893.06;4457561;32;34779;-84
2024/04/01 00:45:40;;;;;;;3.95;3.58;;;;;;;20.26;40.74;98897.09;4457162;32;33653;-84
2024/04/01 00:48:08;;;;;;;8.02;2.92;;;;;;;20.26;40.46;98896.25;4470318;32;33896;-84
2024/04/01 00:50:36;;;;;;;12.23;4.78;;;;;;;20.39;40.34;98894.88;4457932;32;33654;-84
2024/04/01 00:53:04;;;;;;;8.02;2.33;;;;;;;20.46;40.14;98900.47;4469771;32;33617;-83
2024/04/01 00:55:32;;;;;;;10.25;3.05;;;;;;;20.85;39.40;98889.50;4470189;32;35890;-83
2024/04/01 00:57:59;;;;;;;31.00;4.20;;;;;;;20.45;39.85;98890.75;4456681;32;32935;-83
2024/04/01 01:00:26;;;;;;;3.60;1.52;;;;;;;20.26;40.27;98890.88;4457447;32;33079;-84
2024/04/01 01:02:53;;;;;;;23.52;3.53;;;;;;;20.21;40.38;98888.66;4456931;32;33704;-84
2024/04/01 01:05:20;;;;;;;5.12;3.17;;;;;;;20.62;39.93;98892.66;4457507;32;33313;-85
2024/04/01 01:07:47;;;;;;;17.05;3.00;;;;;;;20.39;39.79;98883.31;4469506;32;33373;-85
2024/04/01 01:10:14;;;;;;;10.98;4.05;;;;;;;20.54;39.60;98872.94;4455011;32;35050;-84
2024/04/01 01:12:41;;;;;;;22.33;3.78;;;;;;;20.46;39.63;98866.50;4444757;32;33279;-84
2024/04/01 01:15:10;;;;;;;11.02;4.78;;;;;;;20.23;39.92;98877.81;4457303;32;33095;-85
2024/04/01 01:17:37;;;;;;;4.37;3.78;;;;;;;20.04;40.31;98860.00;4457447;32;34949;-85
2024/04/01 01:20:11;;;;;;;1.80;1.70;;;;;;;20.26;40.10;98864.09;4456953;32;33187;-85
2024/04/01 01:22:39;;;;;;;6.30;2.45;;;;;;;20.28;39.95;98860.25;4445557;32;34813;-84
2024/04/01 01:25:09;;;;;;;2.20;2.03;;;;;;;20.09;40.21;98855.88;4470155;32;32596;-84
2024/04/01 01:27:37;;;;;;;10.73;3.12;;;;;;;19.89;40.54;98854.28;4457558;32;33519;-84
2024/04/01 01:30:14;;;;;;;2.28;2.05;;;;;;;19.81;40.88;98859.56;4457055;32;34219;-85
2024/04/01 01:32:45;;;;;;;8.15;2.12;;;;;;;19.90;40.64;98864.03;4444896;32;33339;-86
2024/04/01 01:35:14;;;;;;;11.10;2.92;;;;;;;19.84;40.67;98869.94;4468936;32;34937;-84
2024/04/01 01:37:40;;;;;;;10.07;2.55;;;;;;;19.69;40.72;98861.56;4449317;32;32742;-84
2024/04/01 01:40:08;;;;;;;7.60;3.35;;;;;;;19.76;40.67;98851.97;4457597;32;34512;-83
2024/04/01 01:42:35;;;;;;;9.70;1.83;;;;;;;19.59;40.63;98856.22;4445196;31;35500;-83
2024/04/01 01:45:06;;;;;;;3.35;1.77;;;;;;;19.62;40.61;98845.25;4470020;32;34701;-83
2024/04/01 01:47:33;;;;;;;11.15;5.95;;;;;;;19.86;40.12;98851.91;4470270;32;33295;-82
2024/04/01 01:50:01;;;;;;;6.82;3.00;;;;;;;19.40;40.74;98840.22;4455346;32;34584;-82
2024/04/01 01:52:27;;;;;;;9.80;2.87;;;;;;;19.34;40.67;98846.19;4455979;32;32402;-83
2024/04/01 01:54:54;;;;;;;11.60;3.90;;;;;;;19.16;41.14;98836.22;4470143;32;34295;-82
2024/04/01 01:57:21;;;;;;;1.40;1.30;;;;;;;19.61;40.56;98832.88;4458540;32;32846;-82
2024/04/01 01:59:48;;;;;;;5.70;2.08;;;;;;;19.25;41.10;98831.00;4454645;32;34262;-83
2024/04/01 02:02:16;;;;;;;26.23;5.07;;;;;;;19.25;40.89;98844.38;4444052;32;32691;-83
2024/04/01 02:04:43;;;;;;;4.30;2.90;;;;;;;19.56;40.39;98847.63;4469475;32;34138;-83
2024/04/01 02:07:10;;;;;;;17.02;4.20;;;;;;;19.50;40.49;98849.06;4469703;32;33394;-83
2024/04/01 02:09:36;;;;;;;2.40;1.65;;;;;;;19.43;40.53;98839.94;4444219;32;32811;-82
2024/04/01 02:12:10;;;;;;;4.95;2.53;;;;;;;19.54;40.22;98837.09;4465865;32;33598;-83
2024/04/01 02:14:37;;;;;;;9.68;2.92;;;;;;;19.64;40.11;98843.25;4447299;32;33336;-83
2024/04/01 02:17:07;;;;;;;5.50;3.55;;;;;;;19.57;39.94;98844.81;4444091;32;31879;-82
2024/04/01 02:19:35;;;;;;;17.25;6.78;;;;;;;19.55;39.90;98849.47;4470245;32;33826;-83
2024/04/01 02:22:02;;;;;;;9.80;3.33;;;;;;;19.36;40.23;98852.22;4447833;32;33112;-82
2024/04/01 02:24:29;;;;;;;5.60;3.78;;;;;;;19.30;40.54;98847.47;4448949;32;33563;-83
2024/04/01 02:26:55;;;;;;;10.65;1.65;;;;;;;19.43;40.39;98847.97;4456499;32;32253;-84
2024/04/01 02:29:22;;;;;;;13.57;2.67;;;;;;;19.59;39.96;98860.75;4455907;32;34551;-83
2024/04/01 02:31:49;;;;;;;5.78;3.25;;;;;;;19.65;39.83;98866.41;4455448;32;34939;-82
2024/04/01 02:34:15;;;;;;;9.05;4.12;;;;;;;19.77;39.49;98863.53;4442176;32;32142;-82
2024/04/01 02:36:42;;;;;;;24.50;2.42;;;;;;;19.56;39.82;98863.69;4469161;32;34316;-83
2024/04/01 02:39:18;;;;;;;10.52;4.72;;;;;;;19.39;40.32;98865.31;4456144;32;33407;-82
2024/04/01 02:41:45;;;;;;;16.05;2.97;;;;;;;19.16;40.53;98867.50;4456194;32;33127;-84
2024/04/01 02:44:12;;;;;;;5.68;0.37;;;;;;;19.19;40.54;98868.06;4456198;32;33811;-84
2024/04/01 02:46:40;;;;;;;8.93;5.40;;;;;;;19.36;40.27;98860.25;4443055;32;32436;-83
2024/04/01 02:49:07;;;;;;;10.73;2.80;;;;;;;19.55;40.00;98859.34;4443022;32;32569;-82
2024/04/01 02:51:34;;;;;;;13.75;2.53;;;;;;;19.18;40.57;98855.66;4444269;32;34846;-82
2024/04/01 02:54:01;;;;;;;20.98;3.25;;;;;;;19.13;40.56;98844.56;4455778;32;32696;-84
2024/04/01 02:56:28;;;;;;;5.40;3.92;;;;;;;19.26;40.41;98841.53;4456140;32;32389;-84
2024/04/01 02:58:55;;;;;;;5.47;4.22;;;;;;;18.95;41.07;98851.63;4442497;32;34334;-84
2024/04/01 03:01:21;;;;;;;9.65;2.92;;;;;;;19.31;40.17;98839.28;4443059;32;33369;-85
2024/04/01 03:03:48;;;;;;;6.90;3.42;;;;;;;19.07;40.68;98844.28;4456082;32;34119;-84
2024/04/01 03:06:15;;;;;;;4.80;4.18;;;;;;;19.14;40.62;98840.88;4444171;32;33534;-84
2024/04/01 03:08:42;;;;;;;18.50;2.40;;;;;;;19.12;40.17;98826.78;4457792;32;32331;-84
2024/04/01 03:11:09;;;;;;;7.37;4.87;;;;;;;18.83;40.82;98831.38;4456064;32;33697;-84
2024/04/01 03:13:36;;;;;;;16.50;6.07;;;;;;;18.77;40.68;98821.25;4445226;32;33397;-84
2024/04/01 03:16:05;;;;;;;22.83;4.57;;;;;;;18.97;40.34;98820.22;4457925;32;32444;-84
2024/04/01 03:18:32;;;;;;;21.33;1.27;;;;;;;19.18;40.07;98826.22;4445021;32;34794;-81
2024/04/01 03:20:59;;;;;;;5.05;2.80;;;;;;;19.21;39.58;98822.41;4445092;32;33206;-81
2024/04/01 03:23:25;;;;;;;6.07;3.95;;;;;;;19.23;39.78;98823.12;4470835;32;34152;-81
2024/04/01 03:25:52;;;;;;;19.95;2.92;;;;;;;19.06;40.06;98832.72;4470498;32;34474;-81
2024/04/01 03:28:19;;;;;;;20.27;7.57;;;;;;;19.27;39.68;98824.50;4457918;32;34595;-81
2024/04/01 03:30:47;;;;;;;6.60;2.53;;;;;;;19.53;39.19;98826.53;4457755;32;33821;-82
2024/04/01 03:33:13;;;;;;;8.75;3.72;;;;;;;19.42;39.04;98827.56;4445647;32;32793;-83
2024/04/01 03:35:40;;;;;;;36.47;5.05;;;;;;;19.54;38.84;98826.38;4432225;32;33577;-83
2024/04/01 03:38:09;;;;;;;4.30;2.47;;;;;;;19.57;38.76;98833.28;4457659;32;32384;-83
2024/04/01 03:40:39;;;;;;;30.77;3.55;;;;;;;19.51;38.90;98829.34;4458187;32;34115;-83
2024/04/01 03:43:07;;;;;;;14.40;4.68;;;;;;;19.28;38.63;98820.00;4433415;32;34190;-84
2024/04/01 03:45:34;;;;;;;7.95;4.60;;;;;;;19.61;38.26;98822.16;4470802;32;32022;-84
2024/04/01 03:48:02;;;;;;;6.00;2.25;;;;;;;19.45;38.43;98828.09;4457965;32;32648;-84
2024/04/01 03:50:30;;;;;;;4.30;3.08;;;;;;;19.69;38.06;98830.28;4457510;32;32697;-84
2024/04/01 03:52:57;;;;;;;14.93;4.65;;;;;;;19.41;38.43;98833.88;4457933;32;34020;-85
2024/04/01 03:55:23;;;;;;;4.62;2.75;;;;;;;19.79;37.62;98824.03;4444701;32;32039;-85
2024/04/01 03:57:50;;;;;;;7.62;3.03;;;;;;;19.84;37.44;98816.38;4444777;32;34564;-84
2024/04/01 04:00:17;;;;;;;13.13;4.68;;;;;;;19.51;37.59;98823.97;4457733;32;33038;-84
2024/04/01 04:02:45;;;;;;;20.48;7.40;;;;;;;19.76;37.14;98818.97;4458103;32;34652;-84
2024/04/01 04:05:13;;;;;;;4.87;4.05;;;;;;;19.78;37.05;98812.47;4457473;32;33503;-85
2024/04/01 04:07:41;;;;;;;4.10;2.55;;;;;;;19.71;37.11;98803.34;4445740;32;33041;-84
2024/04/01 04:10:11;;;;;;;1.80;1.70;;;;;;;19.65;36.76;98791.41;4469798;32;32751;-87
2024/04/01 04:12:38;;;;;;;35.05;3.72;;;;;;;19.88;36.69;98788.31;4450749;32;34822;-86
2024/04/01 04:15:05;;;;;;;10.60;2.53;;;;;;;19.97;36.29;98805.31;4444744;32;32728;-86
2024/04/01 04:17:32;;;;;;;5.25;2.67;;;;;;;19.91;36.15;98804.09;4457602;32;35721;-86
2024/04/01 04:19:59;;;;;;;5.70;3.58;;;;;;;20.01;36.15;98802.19;4457749;32;35749;-83
2024/04/01 04:22:26;;;;;;;5.62;3.00;;;;;;;19.81;36.32;98812.19;4470516;32;34223;-83
2024/04/01 04:24:52;;;;;;;31.27;4.50;;;;;;;19.92;36.40;98811.13;4457518;32;34070;-82
2024/04/01 04:27:19;;;;;;;33.90;6.55;;;;;;;20.07;36.08;98823.00;4431632;32;34415;-82
2024/04/01 04:29:46;;;;;;;6.87;3.58;;;;;;;20.06;35.89;98815.97;4443573;32;31918;-82
2024/04/01 04:32:13;;;;;;;9.65;3.12;;;;;;;20.03;36.08;98800.19;4444350;32;33566;-84
2024/04/01 04:34:40;;;;;;;11.98;1.77;;;;;;;20.42;35.52;98789.19;4457808;32;33894;-85
2024/04/01 04:37:07;;;;;;;9.30;3.80;;;;;;;20.48;35.51;98799.31;4456317;32;32360;-85
2024/04/01 04:39:34;;;;;;;3.17;2.87;;;;;;;20.36;35.81;98800.50;4457226;32;34714;-85
2024/04/01 04:42:01;;;;;;;2.37;1.67;;;;;;;20.27;36.06;98796.94;4457151;32;33003;-85
2024/04/01 04:44:28;;;;;;;6.93;2.65;;;;;;;20.26;36.05;98799.75;4469534;32;32703;-85
2024/04/01 04:46:58;;;;;;;3.45;2.67;;;;;;;20.52;35.82;98805.22;4456619;32;34140;-86
2024/04/01 04:49:25;;;;;;;7.10;2.47;;;;;;;20.27;35.92;98806.78;4436607;32;34660;-87
2024/04/01 04:51:51;;;;;;;5.70;2.20;;;;;;;20.46;36.06;98812.00;4470054;32;33805;-84
2024/04/01 04:54:18;;;;;;;8.27;2.78;;;;;;;20.75;35.58;98816.28;4470117;32;32916;-84
2024/04/01 04:56:45;;;;;;;1.98;1.77;;;;;;;20.87;35.67;98815.06;4455617;32;31781;-84
2024/04/01 04:59:11;;;;;;;4.43;2.78;;;;;;;20.92;35.75;98807.38;4442803;32;33200;-84
2024/04/01 05:01:38;;;;;;;12.05;4.00;;;;;;;20.86;35.86;98819.56;4457039;32;34155;-85
2024/04/01 05:04:05;;;;;;;6.87;2.42;;;;;;;20.80;36.22;98814.00;4443794;32;34335;-84
2024/04/01 05:06:34;;;;;;;3.58;2.20;;;;;;;20.57;36.39;98814.50;4470111;32;34113;-84
2024/04/01 05:09:01;;;;;;;9.80;5.22;;;;;;;20.43;36.20;98820.37;4444275;32;33353;-84
2024/04/01 05:11:28;;;;;;;10.77;4.32;;;;;;;20.42;36.70;98816.84;4457038;32;33894;-84
2024/04/01 05:13:54;;;;;;;15.95;5.82;;;;;;;20.70;36.34;98824.84;4468733;32;31967;-84
2024/04/01 05:16:21;;;;;;;2.65;2.00;;;;;;;20.68;36.65;98827.66;4443777;32;33217;-84
2024/04/01 05:18:48;;;;;;;4.45;1.90;;;;;;;20.67;36.43;98823.28;4430426;32;34426;-83
2024/04/01 05:21:14;;;;;;;1.75;1.12;;;;;;;20.61;36.18;98815.88;4456594;32;34342;-83
2024/04/01 05:23:41;;;;;;;6.32;3.00;;;;;;;20.75;36.77;98817.16;4443086;32;33377;-83
2024/04/01 05:26:08;;;;;;;12.40;2.40;;;;;;;20.48;37.36;98807.38;4456137;32;33887;-83
2024/04/01 05:28:35;;;;;;;0.80;0.80;;;;;;;20.49;36.24;98806.38;4467790;32;32625;-83
2024/04/01 05:31:02;;;;;;;10.98;3.05;;;;;;;20.25;36.82;98803.44;4455988;32;34648;-83
2024/04/01 05:33:33;;;;;;;5.55;1.33;;;;;;;20.62;36.51;98798.78;4467974;32;33126;-84
2024/04/01 05:36:02;;;;;;;23.67;3.20;;;;;;;20.54;36.79;98806.75;4456058;32;33450;-83
2024/04/01 05:38:29;;;;;;;5.57;2.17;;;;;;;20.55;36.36;98804.91;4454591;32;34971;-84
2024/04/01 05:40:55;;;;;;;11.95;3.15;;;;;;;20.53;36.15;98805.06;4453085;32;32424;-84
2024/04/01 05:43:22;;;;;;;17.90;2.08;;;;;;;20.56;36.22;98793.19;4468558;32;32849;-84
2024/04/01 05:45:49;;;;;;;4.45;2.87;;;;;;;20.46;36.79;98801.25;4441974;32;33734;-83
2024/04/01 05:48:17;;;;;;;6.97;3.85;;;;;;;20.12;37.07;98809.16;4456832;32;34767;-83
2024/04/01 05:50:51;;;;;;;15.45;1.48;;;;;;;19.98;36.83;98804.31;4456045;32;33781;-83
2024/04/01 05:53:18;;;;;;;3.00;2.75;;;;;;;20.01;37.06;98802.19;4460824;32;33536;-83
2024/04/01 05:55:45;;;;;;;12.20;4.87;;;;;;;20.08;36.94;98808.62;4469346;32;33626;-82
2024/04/01 05:58:11;;;;;;;5.62;3.53;;;;;;;19.82;37.45;98805.81;4456024;32;34269;-82
2024/04/01 06:00:38;;;;;;;5.03;2.75;;;;;;;19.64;37.61;98800.41;4459018;32;33907;-83
2024/04/01 06:03:05;;;;;;;14.38;2.40;;;;;;;19.43;38.19;98808.66;4444387;32;34230;-83
2024/04/01 06:05:35;;;;;;;3.10;1.67;;;;;;;19.48;37.92;98805.56;4456739;32;34074;-83
2024/04/01 06:08:01;;;;;;;23.17;2.85;;;;;;;19.30;38.56;98804.63;4469430;32;33941;-82
2024/04/01 06:10:28;;;;;;;3.58;2.55;;;;;;;19.43;38.62;98808.66;4438479;32;34383;-83
2024/04/01 06:12:55;;;;;;;11.45;4.30;;;;;;;19.38;38.53;98807.44;4468852;32;32716;-84
2024/04/01 06:15:22;;;;;;;1.25;1.00;;;;;;;19.25;38.71;98809.59;4455736;32;33659;-83
2024/04/01 06:17:52;;;;;;;11.23;5.12;;;;;;;19.37;38.55;98803.03;4455929;32;34205;-83
2024/04/01 06:20:18;;;;;;;1.98;1.50;;;;;;;19.17;39.15;98796.91;4469055;32;32397;-83
2024/04/01 06:22:45;;;;;;;6.65;3.90;;;;;;;19.31;38.62;98798.28;4455647;32;33552;-83
2024/04/01 06:25:12;;;;;;;3.95;2.28;;;;;;;19.32;38.80;98794.63;4442775;32;33240;-83
2024/04/01 06:27:39;;;;;;;4.87;2.75;;;;;;;19.35;38.93;98810.38;4456094;32;34836;-83
2024/04/01 06:30:07;;;;;;;3.62;1.95;;;;;;;19.41;38.62;98807.94;4443727;32;32542;-84
2024/04/01 06:32:34;;;;;;;2.22;2.03;;;;;;;19.26;39.52;98816.62;4443544;32;33542;-83
2024/04/01 06:35:01;;;;;;;17.00;5.30;;;;;;;19.23;39.06;98800.84;4455344;32;34179;-83
2024/04/01 06:37:28;;;;;;;13.62;2.15;;;;;;;19.51;38.81;98799.88;4455856;32;32519;-82
2024/04/01 06:39:55;;;;;;;5.82;2.97;;;;;;;19.50;38.81;98806.22;4428647;32;33173;-83
2024/04/01 06:42:22;;;;;;;11.88;3.33;;;;;;;19.76;38.17;98813.63;4443066;32;33303;-84
2024/04/01 06:44:48;;;;;;;4.22;3.85;;;;;;;19.97;38.29;98816.03;4466998;31;33252;-83
2024/04/01 06:47:15;;;;;;;12.18;2.22;;;;;;;20.27;37.58;98813.00;4455024;32;33723;-82
2024/04/01 06:49:42;;;;;;;3.28;1.17;;;;;;;20.21;37.33;98809.09;4455494;32;32726;-83
2024/04/01 06:52:09;;;;;;;1.70;1.60;;;;;;;20.56;37.17;98818.16;4468099;32;33456;-83
2024/04/01 06:54:36;;;;;;;2.75;2.22;;;;;;;20.64;36.72;98823.59;4446612;31;32410;-83
2024/04/01 06:57:03;;;;;;;14.45;5.47;;;;;;;20.94;36.57;98829.53;4441543;32;32365;-82
2024/04/01 06:59:29;;;;;;;28.92;3.47;;;;;;;20.81;36.72;98824.56;4454200;31;34535;-83
2024/04/01 07:01:56;;;;;;;7.90;1.73;;;;;;;20.86;36.16;98829.47;4454011;32;35182;-83
2024/04/01 07:04:22;;;;;;;4.85;2.87;;;;;;;20.73;36.64;98829.03;4452733;32;34220;-83
2024/04/01 07:06:49;;;;;;;7.57;2.42;;;;;;;20.88;36.42;98822.09;4467561;32;34001;-82
2024/04/01 07:09:16;;;;;;;26.60;4.00;;;;;;;20.90;36.29;98823.62;4468112;32;34004;-82
2024/04/01 07:11:43;;;;;;;11.60;4.95;;;;;;;20.77;36.81;98820.50;4467771;32;33231;-82
2024/04/01 07:14:09;;;;;;;2.75;2.40;;;;;;;20.66;36.94;98820.78;4467736;32;33864;-81
2024/04/01 07:16:36;;;;;;;19.58;3.40;;;;;;;20.87;36.84;98823.94;4442563;31;35949;-83
2024/04/01 07:19:04;;;;;;;1.75;1.27;;;;;;;20.97;36.79;98826.53;4454409;32;33597;-82
2024/04/01 07:21:32;;;;;;;2.15;1.92;;;;;;;20.52;37.45;98824.00;4455431;32;32693;-82
2024/04/01 07:23:58;;;;;;;40.08;4.50;;;;;;;20.79;37.42;98823.88;4454996;31;33836;-83
2024/04/01 07:26:25;;;;;;;4.22;2.40;;;;;;;20.89;36.86;98818.44;4452934;32;34022;-82
2024/04/01 07:28:51;;;;;;;6.22;3.97;;;;;;;20.97;37.08;98821.16;4467043;32;34914;-82
2024/04/01 07:31:18;;;;;;;4.72;2.97;;;;;;;21.10;36.74;98813.53;4441204;32;32818;-83
2024/04/01 07:33:45;;;;;;;2.00;1.60;;;;;;;21.51;36.62;98818.31;4456068;32;32962;-82
2024/04/01 07:36:12;;;;;;;13.60;4.07;;;;;;;21.68;35.83;98828.13;4453748;32;32541;-82
2024/04/01 07:38:39;;;;;;;9.20;2.95;;;;;;;21.65;35.64;98828.47;4429145;31;33902;-83
2024/04/01 07:41:07;;;;;;;14.18;2.80;;;;;;;21.93;35.68;98829.06;4466179;32;33314;-82
2024/04/01 07:43:33;;;;;;;3.90;2.37;;;;;;;22.02;34.91;98822.72;4456734;32;33793;-82
2024/04/01 07:46:00;;;;;;;16.15;3.37;;;;;;;22.13;34.85;98824.31;4466170;32;33607;-82
2024/04/01 07:48:26;;;;;;;6.62;4.20;;;;;;;22.18;34.44;98814.75;4455580;32;33154;-82
2024/04/01 07:50:53;;;;;;;7.18;3.03;;;;;;;22.43;34.60;98809.41;4454078;32;32943;-83
2024/04/01 07:53:20;;;;;;;14.57;3.85;;;;;;;22.38;33.84;98823.34;4456074;32;32393;-83
2024/04/01 07:55:46;;;;;;;5.55;3.25;;;;;;;22.45;33.78;98820.81;4443030;31;32985;-83
2024/04/01 07:58:13;;;;;;;8.15;4.47;;;;;;;22.32;33.92;98817.78;4468433;32;33883;-82
2024/04/01 08:00:40;;;;;;;5.28;0.70;;;;;;;23.21;33.34;98811.56;4443788;32;34755;-82
2024/04/01 08:03:06;;;;;;;6.03;4.53;;;;;;;22.84;33.47;98814.78;4456289;32;32417;-83
2024/04/01 08:05:33;;;;;;;14.43;3.65;;;;;;;22.64;33.38;98812.41;4469730;32;32740;-83
2024/04/01 08:08:00;;;;;;;8.88;3.15;;;;;;;23.10;32.85;98812.75;4456804;32;32662;-82
2024/04/01 08:10:28;;;;;;;3.25;2.05;;;;;;;23.55;32.29;98813.13;4432268;32;32432;-82
2024/04/01 08:12:54;;;;;;;13.68;4.47;;;;;;;23.81;32.24;98812.91;4453049;32;33813;-84
2024/04/01 08:15:21;;;;;;;25.33;4.93;;;;;;;23.64;32.43;98809.44;4449851;32;32933;-83
2024/04/01 08:17:48;;;;;;;17.27;3.83;;;;;;;23.96;31.48;98792.28;4455038;32;33944;-84
2024/04/01 08:20:14;;;;;;;5.62;2.53;;;;;;;23.79;31.20;98790.69;4459349;31;32925;-83
2024/04/01 08:22:41;;;;;;;10.27;5.82;;;;;;;23.79;31.49;98782.59;4457324;32;32794;-84
2024/04/01 08:25:08;;;;;;;25.52;5.03;;;;;;;23.87;31.78;98787.94;4442996;31;34946;-83
2024/04/01 08:27:34;;;;;;;7.82;1.42;;;;;;;23.91;31.60;98800.06;4469642;32;33832;-84
2024/04/01 08:30:02;;;;;;;6.65;4.30;;;;;;;24.37;31.14;98794.75;4457348;32;32692;-83
2024/04/01 08:32:29;;;;;;;25.92;5.87;;;;;;;24.08;31.33;98795.41;4456772;32;33361;-83
2024/04/01 08:34:56;;;;;;;5.30;3.05;;;;;;;24.12;30.82;98797.59;4443552;32;32911;-83
2024/04/01 08:37:22;;;;;;;17.30;3.60;;;;;;;24.32;31.34;98791.72;4456872;32;34135;-84
2024/04/01 08:39:49;;;;;;;10.63;4.97;;;;;;;24.59;30.45;98788.50;4457046;32;34714;-83
2024/04/01 08:42:19;;;;;;;32.53;3.87;;;;;;;24.45;30.24;98791.97;4456570;32;32055;-84
2024/04/01 08:44:50;;;;;;;13.95;6.07;;;;;;;24.90;30.51;98795.66;4441334;32;32995;-84
2024/04/01 08:47:18;;;;;;;16.00;5.20;;;;;;;25.25;30.64;98789.56;4446202;31;34801;-84
2024/04/01 08:49:55;;;;;;;18.80;2.95;;;;;;;25.09;29.43;98794.31;4456769;32;34792;-83
2024/04/01 08:52:26;;;;;;;18.12;4.78;;;;;;;25.08;29.36;98792.66;4446765;32;33470;-84
2024/04/01 08:54:53;;;;;;;14.57;2.53;;;;;;;25.42;29.00;98795.66;4468265;32;32723;-84
2024/04/01 08:57:20;;;;;;;17.75;2.55;;;;;;;25.42;29.03;98789.41;4437887;32;32396;-85
2024/04/01 08:59:49;;;;;;;17.65;3.30;;;;;;;25.48;29.47;98785.94;4459192;31;33955;-83
2024/04/01 09:02:15;;;;;;;9.65;5.32;;;;;;;25.75;29.39;98793.41;4445269;32;33550;-83
2024/04/01 09:04:42;;;;;;;5.40;3.58;;;;;;;25.64;28.82;98795.75;4442297;32;33733;-84
2024/04/01 09:07:13;;;;;;;6.80;3.55;;;;;;;26.01;28.85;98783.94;4456979;32;34801;-83
2024/04/01 09:09:39;;;;;;;24.55;6.28;;;;;;;25.86;28.68;98775.88;4453502;32;32022;-83
2024/04/01 09:12:10;;;;;;;7.72;3.00;;;;;;;26.01;28.58;98770.41;4457248;32;33353;-83
2024/04/01 09:14:37;;;;;;;40.00;6.57;;;;;;;26.14;29.02;98770.56;4444637;32;34762;-83
2024/04/01 09:17:03;;;;;;;7.10;3.87;;;;;;;25.64;28.49;98772.25;4457282;32;32383;-84
2024/04/01 09:19:30;;;;;;;9.90;4.45;;;;;;;25.79;28.56;98759.56;4444061;32;31613;-84
2024/04/01 09:22:01;;;;;;;7.80;3.10;;;;;;;26.37;29.14;98761.44;4432370;32;34920;-83
2024/04/01 09:24:28;;;;;;;59.53;8.23;;;;;;;26.28;28.92;98761.56;4445099;32;33709;-84
2024/04/01 09:26:55;;;;;;;21.98;5.97;;;;;;;26.15;28.50;98771.41;4469452;32;33223;-83
2024/04/01 09:29:22;;;;;;;13.43;3.55;;;;;;;26.16;28.28;98755.00;4469308;32;32635;-83
2024/04/01 09:31:49;;;;;;;16.50;7.68;;;;;;;26.10;27.88;98766.56;4444594;32;32828;-83
2024/04/01 09:34:16;;;;;;;35.90;7.43;;;;;;;26.47;27.81;98764.69;4444589;32;32504;-83
2024/04/01 09:36:44;;;;;;;14.02;4.57;;;;;;;26.27;28.29;98768.00;4444904;32;33992;-84
2024/04/01 09:39:10;;;;;;;10.35;5.35;;;;;;;26.05;28.38;98764.44;4457762;32;33740;-84
2024/04/01 09:41:37;;;;;;;19.40;4.80;;;;;;;26.35;28.12;98764.34;4457683;32;33622;-83
2024/04/01 09:44:04;;;;;;;12.57;5.25;;;;;;;26.15;27.85;98760.59;4457403;32;34569;-83
2024/04/01 09:46:31;;;;;;;8.48;3.62;;;;;;;26.80;27.68;98763.09;4457075;32;34198;-84
2024/04/01 09:48:58;;;;;;;9.32;5.47;;;;;;;27.10;26.97;98759.37;4444429;32;33733;-83
2024/04/01 09:51:27;;;;;;;4.30;3.12;;;;;;;26.90;27.14;98764.63;4432116;32;34435;-83
2024/04/01 09:53:53;;;;;;;9.70;3.28;;;;;;;27.06;27.11;98759.75;4470356;32;32576;-84
2024/04/01 09:56:50;;;;;;;7.47;3.58;;;;;;;27.78;26.99;98746.84;4457683;32;34247;-84
2024/04/01 09:59:42;;;;;;;11.93;3.37;;;;;;;27.46;26.55;98751.87;4470300;32;33412;-84
2024/04/01 10:02:47;;;;;;;16.02;4.82;;;;;;;27.78;26.55;98730.56;4455422;32;32429;-84
2024/04/01 10:06:02;;;;;;;27.65;9.23;;;;;;;27.36;26.05;98726.19;4435101;32;33501;-83
2024/04/01 10:08:47;;;;;;;7.30;3.55;;;;;;;27.33;26.44;98726.56;4463393;32;33385;-84
2024/04/01 10:11:32;;;;;;;11.48;3.60;;;;;;;27.49;26.50;98728.97;4456997;32;33534;-83
2024/04/01 10:14:06;;;;;;;7.05;3.35;;;;;;;27.48;26.18;98721.84;4468452;32;33123;-83
2024/04/01 10:17:14;;;;;;;10.85;5.65;;;;;;;27.58;26.14;98733.16;4455720;32;33204;-84
2024/04/01 10:20:07;;;;;;;35.72;6.43;;;;;;;27.64;26.01;98726.94;4443629;32;32677;-83
2024/04/01 10:22:52;;;;;;;14.27;5.40;;;;;;;27.58;26.35;98711.47;4434506;32;33739;-84
2024/04/01 10:25:24;;;;;;;11.12;6.78;;;;;;;27.89;25.60;98707.44;4483679;32;34233;-83
2024/04/01 10:28:22;;;;;;;32.78;5.90;;;;;;;28.28;25.91;98707.50;4456971;32;35888;-84
2024/04/01 10:31:07;;;;;;;19.58;5.87;;;;;;;28.15;25.36;98702.03;4469563;32;32504;-84
2024/04/01 10:33:57;;;;;;;20.75;4.03;;;;;;;27.79;25.97;98707.81;4457007;32;33506;-84
2024/04/01 10:37:00;;;;;;;20.20;5.20;;;;;;;28.05;25.22;98701.59;4457108;32;33787;-84
2024/04/01 10:39:57;;;;;;;10.50;2.47;;;;;;;28.14;25.74;98700.38;4456836;32;33471;-84
2024/04/01 10:43:01;;;;;;;6.68;3.92;;;;;;;28.60;25.71;98691.47;4455896;32;33112;-84
2024/04/01 10:45:41;;;;;;;19.02;7.70;;;;;;;28.65;26.01;98688.94;4465989;32;34226;-84
2024/04/01 10:48:18;;;;;;;9.38;4.10;;;;;;;28.79;25.80;98677.00;4456309;32;33198;-84
2024/04/01 10:50:51;;;;;;;25.27;7.70;;;;;;;28.16;25.64;98665.75;4454634;32;34377;-84
2024/04/01 10:53:23;;;;;;;10.23;5.03;;;;;;;28.15;25.69;98664.03;4469631;32;34095;-84
2024/04/01 10:56:08;;;;;;;13.30;5.82;;;;;;;28.45;25.15;98658.25;4469145;32;32064;-83
2024/04/01 10:59:09;;;;;;;18.85;3.22;;;;;;;28.65;25.08;98650.91;4469104;32;33047;-84
2024/04/01 11:01:42;;;;;;;22.70;6.15;;;;;;;28.88;25.58;98652.34;4456845;32;33479;-83
2024/04/01 11:04:12;;;;;;;6.47;3.05;;;;;;;28.86;25.41;98644.37;4468180;32;32804;-84
2024/04/01 11:07:21;;;;;;;21.77;5.55;;;;;;;28.86;25.01;98644.37;4468672;32;33780;-84
2024/04/01 11:09:59;;;;;;;32.45;5.05;;;;;;;28.67;24.71;98643.38;4454535;32;34052;-83
2024/04/01 11:12:25;;;;;;;10.95;6.35;;;;;;;28.58;24.72;98631.06;4455255;32;33896;-83
2024/04/01 11:14:57;;;;;;;17.37;6.12;;;;;;;28.32;25.22;98643.59;4468881;32;32966;-83
2024/04/01 11:17:23;;;;;;;14.95;6.05;;;;;;;28.37;25.37;98636.75;4456656;32;33154;-83
2024/04/01 11:20:12;;;;;;;10.10;5.37;;;;;;;28.44;24.61;98623.97;4456157;32;33877;-84
2024/04/01 11:22:51;;;;;;;17.55;4.47;;;;;;;28.44;24.67;98613.13;4468464;32;34836;-83
2024/04/01 11:25:39;;;;;;;7.75;5.15;;;;;;;28.46;23.77;98617.31;4454541;32;34177;-84
2024/04/01 11:28:37;;;;;;;19.50;5.53;;;;;;;28.33;23.85;98612.69;4471350;32;33150;-84
2024/04/01 11:31:14;;;;;;;13.85;4.97;;;;;;;28.63;22.86;98595.12;4457215;32;33374;-84
2024/04/01 11:34:07;;;;;;;22.13;4.72;;;;;;;28.53;23.37;98587.41;4459842;32;33319;-84
2024/04/01 11:37:19;;;;;;;14.55;7.32;;;;;;;28.40;23.24;98590.19;4443682;32;33842;-84
2024/04/01 11:39:54;;;;;;;5.18;3.67;;;;;;;28.20;23.21;98579.28;4456283;32;33765;-83
2024/04/01 11:42:22;;;;;;;18.12;4.47;;;;;;;28.02;24.11;98582.66;4456227;32;32134;-83